createdAt,value
2022-12-26T00:02:05.217Z,5.03
2022-12-26T00:04:51.549Z,5.02
2022-12-26T00:07:18.587Z,5.02
2022-12-26T00:09:46.622Z,5.02
2022-12-26T00:12:13.415Z,5.02
2022-12-26T00:14:40.995Z,5.02
2022-12-26T00:17:07.963Z,5.03
2022-12-26T00:19:37.933Z,5.05
2022-12-26T00:22:04.699Z,5.03
2022-12-26T00:24:49.530Z,5.00
2022-12-26T00:27:16.171Z,5.04
2022-12-26T00:29:42.761Z,5.04
2022-12-26T00:32:09.411Z,5.05
2022-12-26T00:34:36.714Z,5.03
2022-12-26T00:37:03.408Z,4.98
2022-12-26T00:39:30.332Z,5.04
2022-12-26T00:41:56.977Z,5.05
2022-12-26T00:44:23.604Z,5.04
2022-12-26T00:46:50.346Z,5.03
2022-12-26T00:49:19.688Z,5.01
2022-12-26T00:51:49.380Z,5.03
2022-12-26T00:54:16.096Z,5.03
2022-12-26T00:56:42.836Z,5.03
2022-12-26T00:59:09.520Z,5.01
2022-12-26T01:01:36.438Z,5.01
2022-12-26T01:04:03.316Z,5.05
2022-12-26T01:06:30.212Z,5.03
2022-12-26T01:08:56.986Z,5.03
2022-12-26T01:11:42.873Z,5.05
2022-12-26T01:14:17.228Z,5.04
2022-12-26T01:16:47.206Z,5.07
2022-12-26T01:19:14.984Z,5.01
2022-12-26T01:21:43.109Z,4.98
2022-12-26T01:24:10.401Z,5.03
2022-12-26T01:26:37.139Z,5.03
2022-12-26T01:29:03.872Z,5.05
2022-12-26T01:31:30.699Z,5.03
2022-12-26T01:33:57.327Z,5.00
2022-12-26T01:36:24.335Z,5.05
2022-12-26T01:38:51.064Z,5.06
2022-12-26T01:41:19.244Z,5.04
2022-12-26T01:43:53.693Z,5.05
2022-12-26T01:46:31.695Z,5.05
2022-12-26T01:49:20.096Z,5.06
2022-12-26T01:52:01.157Z,5.05
2022-12-26T01:54:42.974Z,5.03
2022-12-26T01:57:31.825Z,5.06
2022-12-26T02:00:02.617Z,5.04
2022-12-26T02:04:03.855Z,5.05
2022-12-26T02:06:36.801Z,5.04
2022-12-26T02:09:04.260Z,4.99
2022-12-26T02:12:34.407Z,5.03
2022-12-26T02:14:53.464Z,5.07
2022-12-26T02:17:25.263Z,5.06
2022-12-26T02:20:24.001Z,5.06
2022-12-26T02:23:35.232Z,5.04
2022-12-26T02:27:14.417Z,5.06
2022-12-26T02:30:23.950Z,5.07
2022-12-26T02:33:26.016Z,5.10
2022-12-26T02:36:39.928Z,5.11
2022-12-26T02:39:49.320Z,5.09
2022-12-26T02:43:03.263Z,5.12
2022-12-26T02:46:13.359Z,5.13
2022-12-26T02:49:05.023Z,5.15
2022-12-26T02:52:17.616Z,5.15
2022-12-26T02:55:20.154Z,5.16
2022-12-26T02:58:42.942Z,5.18
2022-12-26T03:01:48.184Z,5.19
2022-12-26T03:04:38.128Z,5.24
2022-12-26T03:07:43.921Z,5.26
2022-12-26T03:10:48.145Z,5.28
2022-12-26T03:13:25.473Z,5.31
2022-12-26T03:16:37.290Z,5.30
2022-12-26T03:19:12.285Z,5.31
2022-12-26T03:21:50.138Z,5.32
2022-12-26T03:24:22.927Z,5.30
2022-12-26T03:26:58.031Z,5.31
2022-12-26T03:29:47.569Z,5.30
2022-12-26T03:32:14.387Z,5.28
2022-12-26T03:34:48.626Z,5.31
2022-12-26T03:37:48.584Z,5.31
2022-12-26T03:41:17.152Z,5.32
2022-12-26T03:44:17.309Z,5.33
2022-12-26T03:47:36.197Z,5.33
2022-12-26T03:50:53.946Z,5.33
2022-12-26T03:53:59.205Z,5.37
2022-12-26T03:57:00.240Z,5.38
2022-12-26T04:00:03.527Z,5.40
2022-12-26T04:02:52.389Z,5.39
2022-12-26T04:05:40.385Z,5.42
2022-12-26T04:08:44.495Z,5.43
2022-12-26T04:11:38.141Z,5.49
2022-12-26T04:15:09.147Z,5.47
2022-12-26T04:18:38.484Z,5.51
2022-12-26T04:22:05.463Z,5.51
2022-12-26T04:25:17.814Z,5.51
2022-12-26T04:28:09.263Z,5.50
2022-12-26T04:31:03.135Z,5.47
2022-12-26T04:34:10.647Z,5.55
2022-12-26T04:37:15.274Z,5.54
2022-12-26T04:40:13.136Z,5.54
2022-12-26T04:43:50.391Z,5.55
2022-12-26T04:45:57.528Z,5.54
2022-12-26T04:48:42.780Z,5.53
2022-12-26T04:51:12.178Z,5.56
2022-12-26T04:53:39.050Z,5.52
2022-12-26T04:56:06.074Z,5.53
2022-12-26T04:58:32.843Z,5.52
2022-12-26T05:01:17.865Z,5.56
2022-12-26T05:12:35.360Z,5.62
2022-12-26T05:15:02.252Z,5.62
2022-12-26T05:38:04.509Z,5.76
2022-12-26T05:40:32.119Z,5.77
2022-12-26T05:42:58.956Z,5.81
2022-12-26T05:45:25.755Z,5.83
2022-12-26T05:48:04.823Z,5.84
2022-12-26T05:53:12.628Z,5.85
2022-12-26T05:55:48.250Z,5.90
2022-12-26T05:58:15.038Z,5.84
2022-12-26T06:06:06.608Z,5.91
2022-12-26T06:27:35.215Z,6.04
2022-12-26T06:30:02.037Z,6.03
2022-12-26T06:35:18.856Z,6.10
2022-12-26T06:37:48.002Z,6.05
2022-12-26T06:53:54.336Z,6.16
2022-12-26T06:56:26.050Z,6.19
2022-12-26T07:09:50.104Z,6.19
2022-12-26T07:12:24.452Z,6.22
2022-12-26T07:14:51.553Z,6.22
2022-12-26T07:44:36.261Z,6.31
2022-12-26T08:14:05.605Z,6.46
2022-12-26T08:16:40.002Z,6.47
2022-12-26T08:19:06.815Z,6.50
2022-12-26T08:24:20.283Z,6.52
2022-12-26T08:29:31.761Z,6.56
2022-12-26T08:45:25.431Z,6.59
2022-12-26T08:56:06.490Z,6.68
2022-12-26T09:09:33.768Z,6.79
2022-12-26T09:36:39.595Z,7.02
2022-12-26T09:39:08.370Z,7.03
2022-12-26T10:02:40.424Z,7.12
2022-12-26T10:08:43.388Z,7.26
2022-12-26T11:39:30.973Z,7.87
2022-12-26T11:41:59.252Z,7.87
2022-12-26T11:47:30.458Z,7.95
2022-12-26T11:50:10.028Z,7.95
2022-12-26T11:53:00.583Z,7.96
2022-12-26T11:55:42.602Z,7.92
2022-12-26T12:27:39.944Z,7.68
2022-12-26T12:30:22.887Z,7.68
2022-12-26T12:33:42.691Z,7.68
2022-12-26T12:40:01.768Z,7.63
2022-12-26T12:42:55.444Z,7.61
2022-12-26T12:45:34.852Z,7.64
2022-12-26T13:13:38.808Z,7.55
2022-12-26T13:16:19.005Z,7.55
2022-12-26T13:19:00.837Z,7.58
2022-12-26T13:21:36.350Z,7.51
2022-12-26T13:24:41.428Z,7.45
2022-12-26T13:27:31.331Z,7.45
2022-12-26T13:29:58.172Z,7.43
2022-12-26T13:36:05.196Z,7.35
2022-12-26T13:38:56.929Z,7.27
2022-12-26T13:41:49.532Z,7.15
2022-12-26T13:44:26.785Z,7.05
2022-12-26T13:47:01.534Z,6.99
2022-12-26T13:49:44.139Z,6.92
2022-12-26T13:52:15.032Z,6.78
2022-12-26T13:54:48.072Z,6.61
2022-12-26T13:57:41.083Z,6.47
2022-12-26T14:00:23.482Z,6.39
2022-12-26T14:03:56.193Z,6.33
2022-12-26T14:07:04.839Z,6.28
2022-12-26T14:10:14.727Z,6.20
2022-12-26T14:13:51.710Z,6.13
2022-12-26T14:17:17.057Z,6.07
2022-12-26T14:20:02.928Z,6.00
2022-12-26T14:22:50.655Z,5.91
2022-12-26T14:25:50.914Z,5.74
2022-12-26T14:28:26.799Z,5.51
2022-12-26T14:31:15.058Z,5.33
2022-12-26T14:34:31.933Z,5.12
2022-12-26T14:37:18.005Z,4.92
2022-12-26T14:40:27.422Z,4.76
2022-12-26T14:43:12.131Z,4.74
2022-12-26T14:45:52.179Z,4.78
2022-12-26T14:48:18.833Z,4.78
2022-12-26T14:50:55.364Z,4.79
2022-12-26T14:53:29.211Z,4.71
2022-12-26T14:56:08.084Z,4.65
2022-12-26T14:58:53.665Z,4.68
2022-12-26T15:01:23.559Z,4.62
2022-12-26T15:04:09.164Z,4.58
2022-12-26T15:07:22.996Z,4.55
2022-12-26T15:10:49.466Z,4.52
2022-12-26T15:13:49.104Z,4.46
2022-12-26T15:16:51.511Z,4.38
2022-12-26T15:20:14.221Z,4.34
2022-12-26T15:23:49.966Z,4.30
2022-12-26T15:27:06.444Z,4.21
2022-12-26T15:30:19.228Z,4.13
2022-12-26T15:33:24.749Z,4.05
2022-12-26T15:36:29.438Z,3.92
2022-12-26T15:39:41.252Z,3.81
2022-12-26T15:42:47.271Z,3.54
2022-12-26T15:45:28.337Z,3.57
2022-12-26T15:49:02.467Z,3.49
2022-12-26T15:52:13.767Z,3.51
2022-12-26T15:55:03.875Z,3.55
2022-12-26T15:58:08.659Z,3.53
2022-12-26T16:00:57.708Z,3.55
2022-12-26T16:03:54.330Z,3.48
2022-12-26T16:07:15.763Z,3.34
2022-12-26T16:12:40.908Z,3.07
2022-12-26T16:15:10.435Z,3.00
2022-12-26T16:17:43.892Z,2.91
2022-12-26T16:20:51.446Z,2.79
2022-12-26T16:23:26.465Z,2.75
2022-12-26T16:25:57.220Z,2.82
2022-12-26T16:28:43.152Z,2.95
2022-12-26T16:31:33.896Z,2.98
2022-12-26T16:34:01.226Z,2.94
2022-12-26T16:36:37.695Z,2.91
2022-12-26T16:39:11.443Z,2.90
2022-12-26T16:42:28.518Z,3.09
2022-12-26T16:45:04.407Z,3.03
2022-12-26T16:47:39.477Z,2.98
2022-12-26T16:50:08.406Z,2.83
2022-12-26T16:52:46.025Z,2.79
2022-12-26T16:55:22.610Z,2.59
2022-12-26T16:57:58.312Z,2.59
2022-12-26T17:00:27.242Z,2.54
2022-12-26T17:03:04.130Z,2.59
2022-12-26T17:05:38.074Z,2.59
2022-12-26T17:08:13.022Z,2.64
2022-12-26T17:10:51.538Z,2.67
2022-12-26T17:13:26.415Z,2.59
2022-12-26T17:16:05.136Z,2.52
2022-12-26T17:19:08.095Z,2.48
2022-12-26T17:21:38.246Z,2.63
2022-12-26T17:24:24.994Z,2.74
2022-12-26T17:27:20.851Z,2.76
2022-12-26T17:30:19.541Z,2.80
2022-12-26T17:32:48.302Z,2.69
2022-12-26T17:35:25.730Z,2.70
2022-12-26T17:38:06.966Z,2.64
2022-12-26T17:40:39.679Z,2.61
2022-12-26T17:43:12.356Z,2.68
2022-12-26T17:45:49.497Z,2.78
2022-12-26T17:48:19.911Z,2.83
2022-12-26T17:51:00.199Z,2.80
2022-12-26T17:53:33.053Z,2.66
2022-12-26T17:56:12.903Z,2.43
2022-12-26T17:58:51.539Z,2.25
2022-12-26T18:01:21.861Z,2.17
2022-12-26T18:03:52.777Z,2.19
2022-12-26T18:06:21.728Z,2.17
2022-12-26T18:08:48.858Z,2.19
2022-12-26T18:11:15.578Z,2.15
2022-12-26T18:13:44.312Z,2.29
2022-12-26T18:16:22.476Z,2.36
2022-12-26T18:18:51.828Z,2.45
2022-12-26T18:21:21.467Z,2.41
2022-12-26T18:23:50.527Z,2.37
2022-12-26T18:26:29.204Z,2.20
2022-12-26T18:28:56.643Z,2.12
2022-12-26T18:31:25.242Z,1.96
2022-12-26T18:33:52.388Z,1.95
2022-12-26T18:36:31.406Z,1.85
2022-12-26T18:38:58.562Z,1.77
2022-12-26T18:41:25.404Z,1.81
2022-12-26T18:43:52.306Z,1.76
2022-12-26T18:46:26.557Z,1.75
2022-12-26T18:48:56.549Z,1.81
2022-12-26T18:51:30.135Z,1.87
2022-12-26T18:53:56.915Z,1.86
2022-12-26T18:56:26.557Z,1.83
2022-12-26T18:58:57.807Z,1.81
2022-12-26T19:01:26.528Z,1.98
2022-12-26T19:03:54.052Z,1.87
2022-12-26T19:06:30.132Z,2.02
2022-12-26T19:08:58.439Z,2.03
2022-12-26T19:11:25.409Z,2.16
2022-12-26T19:13:52.538Z,2.21
2022-12-26T19:16:19.688Z,2.23
2022-12-26T19:37:41.775Z,2.46
2022-12-26T19:40:21.234Z,2.44
2022-12-26T19:50:53.449Z,2.29
2022-12-26T20:17:46.301Z,2.18
2022-12-26T20:20:13.090Z,2.24
2022-12-26T20:22:39.742Z,2.36
2022-12-26T20:25:09.823Z,2.41
2022-12-26T20:27:36.924Z,2.45
2022-12-26T20:51:46.051Z,2.27
2022-12-26T20:54:16.058Z,2.21
2022-12-26T20:56:43.648Z,2.25
2022-12-26T20:59:11.815Z,2.34
2022-12-26T21:01:39.808Z,2.33
2022-12-26T21:04:08.013Z,2.30
2022-12-26T21:06:41.316Z,2.36
2022-12-26T21:09:08.018Z,2.28
2022-12-26T21:11:39.391Z,2.31
2022-12-26T21:25:01.232Z,2.49
2022-12-26T21:27:28.056Z,2.48
2022-12-26T21:29:54.807Z,2.53
2022-12-26T21:40:33.785Z,2.59
2022-12-26T21:56:30.839Z,1.81
2022-12-26T21:59:16.491Z,1.79
2022-12-26T22:01:43.258Z,1.87
2022-12-26T22:04:23.701Z,1.93
2022-12-26T22:06:52.832Z,1.82
2022-12-26T22:39:51.667Z,1.65
2022-12-26T22:42:18.589Z,1.64
2022-12-26T22:44:54.276Z,1.67
2022-12-26T22:55:51.044Z,1.56
2022-12-26T23:09:21.991Z,1.82
2022-12-26T23:29:20.468Z,2.21
2022-12-26T23:50:39.429Z,1.78
